Time;durP1;ratioP1;P1;durP2;ratioP2;P2;SDS_P1;SDS_P2;PMS_P1;PMS_P2;Temp;Humidity;BMP_temperature;BMP_pressure;BME280_temperature;BME280_humidity;BME280_pressure;Samples;Min_cycle;Max_cycle;Signal;HPM_P1;HPM_P2
2021/05/29 00:02:02;;;;;;;6.10;3.55;;;19.80;61.00;;;;;;5060751;28;20083;-60
2021/05/29 00:04:27;;;;;;;8.63;3.42;;;19.80;61.20;;;;;;5040136;28;20542;-60
2021/05/29 00:06:53;;;;;;;6.32;3.60;;;19.70;61.20;;;;;;5046009;28;20088;-60
2021/05/29 00:09:18;;;;;;;4.63;3.53;;;19.70;61.30;;;;;;5063747;28;20095;-59
2021/05/29 00:11:44;;;;;;;5.43;4.22;;;19.70;61.30;;;;;;5062852;28;20024;-60
2021/05/29 00:14:09;;;;;;;4.15;3.40;;;19.70;61.40;;;;;;5048149;28;20404;-60
2021/05/29 00:16:35;;;;;;;6.00;4.18;;;19.70;61.40;;;;;;5062429;28;20069;-60
2021/05/29 00:19:00;;;;;;;5.53;4.13;;;19.60;61.40;;;;;;5024718;28;20099;-60
2021/05/29 00:21:26;;;;;;;4.68;4.07;;;19.60;61.60;;;;;;5056079;28;20048;-60
2021/05/29 00:23:51;;;;;;;5.10;3.80;;;19.60;61.60;;;;;;5045655;28;20037;-60
2021/05/29 00:26:17;;;;;;;4.13;3.65;;;19.60;61.60;;;;;;5045119;28;20030;-60
2021/05/29 00:28:42;;;;;;;6.22;3.35;;;19.50;61.70;;;;;;5046793;28;20060;-60
2021/05/29 00:31:08;;;;;;;6.75;4.85;;;19.50;61.70;;;;;;5052083;28;20483;-60
2021/05/29 00:33:34;;;;;;;5.53;3.85;;;19.50;61.80;;;;;;5061273;28;20041;-60
2021/05/29 00:35:59;;;;;;;6.07;4.13;;;19.50;61.80;;;;;;5049186;28;20041;-60
2021/05/29 00:38:25;;;;;;;6.45;4.25;;;19.40;61.80;;;;;;5035586;28;20021;-60
2021/05/29 00:40:50;;;;;;;7.47;3.97;;;19.40;61.90;;;;;;5030320;28;20495;-60
2021/05/29 00:43:16;;;;;;;5.45;4.35;;;19.40;61.90;;;;;;5001455;28;20029;-60
2021/05/29 00:45:41;;;;;;;7.88;4.43;;;19.40;62.00;;;;;;5039959;28;20108;-60
2021/05/29 00:48:07;;;;;;;4.75;3.97;;;19.30;62.00;;;;;;5037572;28;20291;-60
2021/05/29 00:50:33;;;;;;;6.90;3.88;;;19.30;62.00;;;;;;5021067;28;20029;-61
2021/05/29 00:52:59;;;;;;;7.05;4.28;;;19.30;62.80;;;;;;5058400;28;20491;-60
2021/05/29 00:55:24;;;;;;;5.63;4.30;;;19.30;62.20;;;;;;5041223;28;20063;-60
2021/05/29 00:57:51;;;;;;;5.63;4.35;;;19.30;62.30;;;;;;5042859;28;20040;-60
2021/05/29 01:00:18;;;;;;;5.03;4.43;;;19.30;62.40;;;;;;5062067;28;20036;-60
2021/05/29 01:02:45;;;;;;;9.10;4.97;;;19.20;62.40;;;;;;5032870;28;20025;-60
2021/05/29 01:05:11;;;;;;;6.50;4.55;;;19.20;62.50;;;;;;5045923;28;20044;-60
2021/05/29 01:07:37;;;;;;;5.47;3.67;;;19.20;62.50;;;;;;5033455;28;20164;-60
2021/05/29 01:10:04;;;;;;;6.18;4.38;;;19.20;62.50;;;;;;5034761;28;20108;-60
2021/05/29 01:12:29;;;;;;;6.40;4.22;;;19.10;62.50;;;;;;5043430;28;20037;-60
2021/05/29 01:14:56;;;;;;;7.35;4.72;;;19.10;62.50;;;;;;5035908;28;20028;-60
2021/05/29 01:17:22;;;;;;;5.38;4.75;;;19.10;62.60;;;;;;5054627;28;20052;-60
2021/05/29 01:19:48;;;;;;;7.45;4.80;;;19.10;62.70;;;;;;5044020;28;20043;-60
2021/05/29 01:22:13;;;;;;;7.75;4.20;;;19.10;62.70;;;;;;5051882;28;20044;-60
2021/05/29 01:24:39;;;;;;;8.00;4.03;;;19.10;62.70;;;;;;5054365;28;20551;-61
2021/05/29 01:27:05;;;;;;;6.05;3.97;;;19.10;62.80;;;;;;5057980;28;20037;-60
2021/05/29 01:29:31;;;;;;;6.10;3.83;;;19.00;62.80;;;;;;5038831;28;20037;-60
2021/05/29 01:32:05;;;;;;;5.32;3.92;;;19.00;62.80;;;;;;5050912;28;20467;-60
2021/05/29 01:34:32;;;;;;;5.88;4.07;;;19.00;62.90;;;;;;5043402;28;20441;-60
2021/05/29 01:37:00;;;;;;;5.15;4.25;;;19.00;62.90;;;;;;5034528;28;20431;-60
2021/05/29 01:39:26;;;;;;;5.45;4.07;;;19.00;63.00;;;;;;5057838;28;20024;-60
2021/05/29 01:41:51;;;;;;;5.05;3.85;;;18.90;63.30;;;;;;5018958;28;20048;-60
2021/05/29 01:44:17;;;;;;;4.03;3.40;;;18.90;63.10;;;;;;5036685;28;20036;-61
2021/05/29 01:46:42;;;;;;;5.80;3.97;;;18.90;63.10;;;;;;5045570;28;20037;-60
2021/05/29 01:49:08;;;;;;;5.53;3.30;;;18.90;63.20;;;;;;5047869;28;20544;-60
2021/05/29 01:51:33;;;;;;;5.95;3.67;;;18.90;63.20;;;;;;5039512;28;20300;-60
2021/05/29 01:53:59;;;;;;;4.07;3.67;;;18.80;63.10;;;;;;5026546;28;20024;-60
2021/05/29 01:56:24;;;;;;;4.13;3.40;;;18.80;63.30;;;;;;5045615;28;20090;-61
2021/05/29 01:58:50;;;;;;;4.18;3.50;;;18.80;63.30;;;;;;5052666;28;20032;-61
2021/05/29 02:01:15;;;;;;;3.63;3.28;;;18.80;63.30;;;;;;5035017;28;20269;-60
2021/05/29 02:03:44;;;;;;;3.83;3.53;;;18.80;63.30;;;;;;5035621;28;20041;-60
2021/05/29 02:06:10;;;;;;;5.07;3.28;;;18.70;63.30;;;;;;5027865;28;20033;-60
2021/05/29 02:08:36;;;;;;;6.30;3.55;;;18.70;63.40;;;;;;5028567;28;20485;-60
2021/05/29 02:11:02;;;;;;;4.97;3.30;;;18.70;63.40;;;;;;5034445;28;20064;-60
2021/05/29 02:13:27;;;;;;;4.65;3.08;;;18.70;63.60;;;;;;5053062;28;20029;-60
2021/05/29 02:15:53;;;;;;;6.38;3.33;;;18.70;63.70;;;;;;5057364;28;20028;-60
2021/05/29 02:18:18;;;;;;;3.97;3.22;;;18.70;63.70;;;;;;5044417;28;21069;-60
2021/05/29 02:20:52;;;;;;;6.43;3.40;;;18.60;63.70;;;;;;5032702;28;20536;-60
2021/05/29 02:23:23;;;;;;;11.48;3.95;;;18.60;63.80;;;;;;5049584;28;20436;-60
2021/05/29 02:25:49;;;;;;;13.57;3.63;;;18.60;64.00;;;;;;5039509;28;20040;-60
2021/05/29 02:28:15;;;;;;;9.25;3.97;;;18.60;64.00;;;;;;5035691;28;20059;-59
2021/05/29 02:30:40;;;;;;;8.63;4.30;;;18.60;64.20;;;;;;5040288;28;20060;-60
2021/05/29 02:33:06;;;;;;;9.82;4.40;;;18.60;64.10;;;;;;5051561;28;20052;-60
2021/05/29 02:35:32;;;;;;;6.32;4.47;;;18.50;64.10;;;;;;5007601;28;20462;-59
2021/05/29 02:37:57;;;;;;;11.20;4.63;;;18.50;64.20;;;;;;5038257;28;20855;-60
2021/05/29 02:40:23;;;;;;;8.10;4.43;;;18.50;64.20;;;;;;5049523;28;20037;-60
2021/05/29 02:42:49;;;;;;;11.82;4.85;;;18.50;64.20;;;;;;5047687;28;20033;-60
2021/05/29 02:45:14;;;;;;;6.30;4.00;;;18.50;64.30;;;;;;5035410;28;20076;-61
2021/05/29 02:47:40;;;;;;;6.85;4.00;;;18.50;64.40;;;;;;5032165;28;20033;-60
2021/05/29 02:50:06;;;;;;;6.75;4.22;;;18.40;64.30;;;;;;5044441;28;20032;-60
2021/05/29 02:52:32;;;;;;;6.78;3.55;;;18.50;64.40;;;;;;5048344;28;20017;-60
2021/05/29 02:54:58;;;;;;;7.70;4.25;;;18.40;64.30;;;;;;5042213;28;20028;-60
2021/05/29 02:57:23;;;;;;;5.80;4.13;;;18.40;64.40;;;;;;5057917;28;20929;-60
2021/05/29 02:59:49;;;;;;;8.18;3.83;;;18.40;64.50;;;;;;5064158;28;20037;-60
2021/05/29 03:02:14;;;;;;;7.40;3.80;;;18.40;64.50;;;;;;5062697;28;20091;-61
2021/05/29 03:04:40;;;;;;;5.65;3.42;;;18.30;64.50;;;;;;5056772;28;20029;-60
2021/05/29 03:07:05;;;;;;;4.78;3.53;;;18.30;64.50;;;;;;5065035;28;20029;-59
2021/05/29 03:09:32;;;;;;;3.97;3.40;;;18.30;64.50;;;;;;5053562;28;20694;-60
2021/05/29 03:11:57;;;;;;;6.30;3.45;;;18.30;64.60;;;;;;5042382;28;20028;-61
2021/05/29 03:14:23;;;;;;;11.32;4.10;;;18.20;64.60;;;;;;5022859;28;20029;-60
2021/05/29 03:16:49;;;;;;;5.00;3.67;;;18.20;64.60;;;;;;5043527;28;20040;-60
2021/05/29 03:19:15;;;;;;;5.35;3.85;;;18.20;64.80;;;;;;5048285;28;20384;-60
2021/05/29 03:21:41;;;;;;;5.03;3.60;;;18.20;64.70;;;;;;5032286;28;20045;-60
2021/05/29 03:24:07;;;;;;;4.95;3.30;;;18.20;65.40;;;;;;5030938;28;20026;-60
2021/05/29 03:26:33;;;;;;;5.88;3.60;;;18.10;64.80;;;;;;5031457;28;20026;-60
2021/05/29 03:28:59;;;;;;;4.65;3.25;;;18.10;64.80;;;;;;5032051;28;20076;-60
2021/05/29 03:31:24;;;;;;;4.18;3.25;;;18.10;65.00;;;;;;5039895;28;20144;-60
2021/05/29 03:33:50;;;;;;;6.05;3.45;;;18.00;65.00;;;;;;5032251;28;20025;-60
2021/05/29 03:36:16;;;;;;;8.30;3.35;;;18.00;65.00;;;;;;5019110;28;20040;-61
2021/05/29 03:38:42;;;;;;;6.07;3.47;;;18.00;65.10;;;;;;5012563;28;20021;-60
2021/05/29 03:41:07;;;;;;;6.40;3.60;;;18.00;65.10;;;;;;5029999;28;20025;-60
2021/05/29 03:43:33;;;;;;;6.97;3.83;;;18.00;65.10;;;;;;5035997;28;20365;-60
2021/05/29 03:45:58;;;;;;;6.38;3.80;;;18.00;65.20;;;;;;5041080;28;20147;-60
2021/05/29 03:48:24;;;;;;;4.30;3.60;;;17.90;65.20;;;;;;5020004;28;20087;-60
2021/05/29 03:50:49;;;;;;;4.97;3.35;;;17.90;65.20;;;;;;5038368;28;20100;-60
2021/05/29 03:53:15;;;;;;;6.72;3.20;;;17.90;65.20;;;;;;5021210;28;20105;-60
2021/05/29 03:55:40;;;;;;;3.95;3.42;;;17.90;65.30;;;;;;5023413;28;20677;-60
2021/05/29 03:58:06;;;;;;;3.45;3.10;;;17.90;65.40;;;;;;5038540;28;20488;-60
2021/05/29 04:00:32;;;;;;;4.03;3.00;;;17.90;65.40;;;;;;5013999;28;20106;-60
2021/05/29 04:02:58;;;;;;;4.95;3.30;;;17.80;65.40;;;;;;5030305;28;20053;-60
2021/05/29 04:05:23;;;;;;;9.93;3.20;;;17.80;65.40;;;;;;5032141;28;20492;-60
2021/05/29 04:07:50;;;;;;;5.45;2.97;;;17.80;65.50;;;;;;5036604;28;20032;-60
2021/05/29 04:10:20;;;;;;;5.00;3.55;;;17.80;65.40;;;;;;5027054;28;20051;-60
2021/05/29 04:12:46;;;;;;;8.15;3.95;;;17.70;65.40;;;;;;5026219;28;20026;-60
2021/05/29 04:15:12;;;;;;;42.63;7.88;;;17.70;65.40;;;;;;5023324;28;20412;-60
2021/05/29 04:17:37;;;;;;;21.90;5.43;;;17.70;65.50;;;;;;5006056;28;20037;-60
2021/05/29 04:20:04;;;;;;;47.13;8.75;;;17.70;65.50;;;;;;5022225;28;20303;-59
2021/05/29 04:22:29;;;;;;;30.75;5.63;;;17.70;65.50;;;;;;5005220;28;20030;-60
2021/05/29 04:24:55;;;;;;;25.90;5.60;;;17.70;65.50;;;;;;5031849;28;20037;-60
2021/05/29 04:27:20;;;;;;;24.50;5.25;;;17.70;65.60;;;;;;5023713;28;20044;-60
2021/05/29 04:29:47;;;;;;;31.40;6.25;;;17.70;65.60;;;;;;5027639;28;20049;-60
2021/05/29 04:32:13;;;;;;;42.75;6.30;;;17.70;65.60;;;;;;5021565;28;20532;-60
2021/05/29 04:34:38;;;;;;;49.03;6.53;;;17.60;65.60;;;;;;5017853;28;20092;-60
2021/05/29 04:37:04;;;;;;;49.45;8.05;;;17.60;65.70;;;;;;5025995;28;20115;-60
2021/05/29 04:39:30;;;;;;;102.80;9.38;;;17.60;65.60;;;;;;5033119;28;20260;-60
2021/05/29 04:41:55;;;;;;;112.90;11.30;;;17.60;65.60;;;;;;5012175;28;20133;-60
2021/05/29 04:44:21;;;;;;;58.70;8.52;;;17.60;65.70;;;;;;5035725;28;20084;-60
2021/05/29 04:46:52;;;;;;;174.98;15.93;;;17.60;65.90;;;;;;5023645;28;20022;-60
2021/05/29 04:49:22;;;;;;;165.10;15.32;;;17.60;66.00;;;;;;5018542;28;20033;-59
2021/05/29 04:51:48;;;;;;;90.00;10.70;;;17.60;66.20;;;;;;5019633;28;20045;-60
2021/05/29 04:54:13;;;;;;;506.63;35.83;;;17.60;66.30;;;;;;5028438;28;20029;-59
2021/05/29 04:56:39;;;;;;;183.05;14.45;;;17.50;66.30;;;;;;5010686;28;20109;-60
2021/05/29 04:59:05;;;;;;;118.20;12.50;;;17.60;66.20;;;;;;5033691;28;20082;-60
2021/05/29 05:01:31;;;;;;;177.98;14.23;;;17.60;66.20;;;;;;5004378;28;20026;-61
2021/05/29 05:04:00;;;;;;;193.35;15.15;;;17.60;66.00;;;;;;5022483;28;20036;-60
2021/05/29 05:06:26;;;;;;;160.95;15.35;;;17.60;66.10;;;;;;5017361;28;20041;-59
2021/05/29 05:08:52;;;;;;;187.57;17.02;;;17.50;66.00;;;;;;5019576;28;20032;-60
2021/05/29 05:11:18;;;;;;;172.35;14.07;;;17.60;66.00;;;;;;5018771;28;20042;-60
2021/05/29 05:13:43;;;;;;;181.75;16.98;;;17.50;66.00;;;;;;5013694;28;20032;-59
2021/05/29 05:16:09;;;;;;;147.00;13.88;;;17.60;66.10;;;;;;5019969;28;20022;-60
2021/05/29 05:18:34;;;;;;;137.95;12.23;;;17.50;66.00;;;;;;5026221;28;20100;-60
2021/05/29 05:21:00;;;;;;;125.13;13.98;;;17.50;66.00;;;;;;5019673;28;20034;-60
2021/05/29 05:23:25;;;;;;;107.47;11.82;;;17.50;66.00;;;;;;5015264;28;20025;-60
2021/05/29 05:25:52;;;;;;;132.35;12.38;;;17.50;66.00;;;;;;5014822;28;20385;-60
2021/05/29 05:28:17;;;;;;;124.93;11.93;;;17.60;66.10;;;;;;5027696;28;20080;-60
2021/05/29 05:30:44;;;;;;;98.43;12.20;;;17.50;66.10;;;;;;5019408;28;20050;-60
2021/05/29 05:33:09;;;;;;;111.93;11.88;;;17.60;66.20;;;;;;5014389;28;20507;-60
2021/05/29 05:35:35;;;;;;;117.18;12.57;;;17.60;66.20;;;;;;5014516;28;20120;-60
2021/05/29 05:38:00;;;;;;;93.80;10.95;;;17.60;66.30;;;;;;5016922;28;20093;-60
2021/05/29 05:40:26;;;;;;;88.93;12.38;;;17.50;66.30;;;;;;5021346;28;20117;-59
2021/05/29 05:42:52;;;;;;;90.72;12.60;;;17.60;66.40;;;;;;5023269;28;20056;-61
2021/05/29 05:45:17;;;;;;;98.25;12.93;;;17.60;66.40;;;;;;5018433;28;20030;-60
2021/05/29 05:47:43;;;;;;;95.70;12.02;;;17.60;66.30;;;;;;5027980;28;20059;-59
2021/05/29 05:50:09;;;;;;;67.45;11.38;;;17.60;66.30;;;;;;5026617;28;20397;-62
2021/05/29 05:52:39;;;;;;;88.55;11.93;;;17.60;66.20;;;;;;5028949;28;20021;-60
2021/05/29 05:55:05;;;;;;;101.70;11.73;;;17.60;66.20;;;;;;5028841;28;20073;-60
2021/05/29 05:57:32;;;;;;;80.18;10.57;;;17.60;66.30;;;;;;5028603;28;20056;-60
2021/05/29 05:59:58;;;;;;;76.57;11.23;;;17.60;66.30;;;;;;5034116;28;20092;-60
2021/05/29 06:02:24;;;;;;;77.68;10.43;;;17.60;66.30;;;;;;5035395;28;20030;-60
2021/05/29 06:04:49;;;;;;;63.25;10.30;;;17.60;66.20;;;;;;5034057;28;20500;-60
2021/05/29 06:07:15;;;;;;;56.88;10.02;;;17.60;66.20;;;;;;5036440;28;20048;-59
2021/05/29 06:09:40;;;;;;;82.07;9.52;;;17.60;66.10;;;;;;5027941;28;20429;-60
2021/05/29 06:12:06;;;;;;;73.53;10.30;;;17.60;66.10;;;;;;5028186;28;20108;-60
2021/05/29 06:20:01;;;;;;;62.22;8.80;;;17.70;66.00;;;;;;5035598;28;20090;-60
2021/05/29 06:22:26;;;;;;;66.45;10.07;;;17.70;66.00;;;;;;5020856;28;20057;-59
2021/05/29 06:24:52;;;;;;;55.97;8.27;;;17.70;65.90;;;;;;5032387;28;20384;-60
2021/05/29 06:27:18;;;;;;;53.35;9.20;;;17.70;65.80;;;;;;5026157;28;20409;-59
2021/05/29 06:29:43;;;;;;;71.28;9.52;;;17.70;65.80;;;;;;5033421;28;20060;-60
2021/05/29 06:32:12;;;;;;;48.80;9.38;;;17.70;65.80;;;;;;5027679;28;20069;-60
2021/05/29 06:34:38;;;;;;;65.93;9.38;;;17.80;65.80;;;;;;5018098;28;20042;-60
2021/05/29 06:37:03;;;;;;;48.85;8.25;;;17.80;65.70;;;;;;5027037;28;20484;-60
2021/05/29 06:39:29;;;;;;;62.00;9.43;;;17.80;65.70;;;;;;5033363;28;20372;-60
2021/05/29 06:41:54;;;;;;;58.80;8.00;;;17.80;65.70;;;;;;5025925;28;20411;-59
2021/05/29 06:44:20;;;;;;;48.53;7.90;;;17.80;65.60;;;;;;5027698;28;20497;-60
2021/05/29 06:46:45;;;;;;;40.17;8.63;;;17.80;65.60;;;;;;5020479;28;20496;-59
2021/05/29 06:49:11;;;;;;;43.88;9.32;;;17.80;65.60;;;;;;5025362;28;20121;-60
2021/05/29 06:52:25;;;;;;;46.92;8.00;;;17.80;65.60;;;;;;5028470;28;20044;-59
2021/05/29 06:54:49;;;;;;;50.65;8.80;;;17.90;65.60;;;;;;5002139;28;20045;-60
2021/05/29 06:59:59;;;;;;;47.15;7.68;;;17.90;65.60;;;;;;5018491;28;20060;-60
2021/05/29 07:02:25;;;;;;;46.55;8.10;;;17.90;65.50;;;;;;5024405;28;20041;-60
2021/05/29 07:04:51;;;;;;;40.78;7.38;;;17.90;65.50;;;;;;5025754;28;20029;-60
2021/05/29 07:07:17;;;;;;;23.98;7.35;;;17.90;66.00;;;;;;5022441;28;20087;-60
2021/05/29 07:09:43;;;;;;;27.85;6.75;;;17.90;66.40;;;;;;5032245;28;20083;-60
2021/05/29 07:12:09;;;;;;;22.25;5.97;;;17.90;66.80;;;;;;5027234;28;20568;-60
2021/05/29 07:14:34;;;;;;;14.88;6.18;;;17.90;66.80;;;;;;5026351;28;20072;-60
2021/05/29 07:17:02;;;;;;;12.65;6.20;;;17.80;67.00;;;;;;5024620;28;20107;-60
2021/05/29 07:19:27;;;;;;;10.98;6.32;;;17.80;67.30;;;;;;5008250;28;20022;-60
2021/05/29 07:21:53;;;;;;;8.85;5.88;;;17.70;67.70;;;;;;5027878;28;20045;-60
2021/05/29 07:24:19;;;;;;;12.68;7.53;;;17.60;68.10;;;;;;5007366;28;20038;-60
2021/05/29 07:26:44;;;;;;;11.05;7.78;;;17.60;68.40;;;;;;5006175;28;20161;-60
2021/05/29 07:29:10;;;;;;;13.88;7.65;;;17.50;68.90;;;;;;5025005;28;20056;-60
2021/05/29 07:31:36;;;;;;;12.05;7.10;;;17.50;69.00;;;;;;5023543;28;20106;-59
2021/05/29 07:34:01;;;;;;;11.00;6.20;;;17.50;69.10;;;;;;5025110;28;20060;-60
2021/05/29 07:36:27;;;;;;;6.55;5.60;;;17.40;69.30;;;;;;5025371;28;20489;-60
2021/05/29 07:38:52;;;;;;;9.82;5.65;;;17.40;69.50;;;;;;5007813;28;20443;-60
2021/05/29 07:41:18;;;;;;;5.38;4.88;;;17.40;69.60;;;;;;5035675;28;20021;-60
2021/05/29 07:43:44;;;;;;;9.00;5.80;;;17.40;69.60;;;;;;5019698;28;20726;-60
2021/05/29 07:46:09;;;;;;;7.93;5.60;;;17.40;69.60;;;;;;5021268;28;20461;-60
2021/05/29 07:48:37;;;;;;;7.03;5.53;;;17.40;69.60;;;;;;5031567;28;20101;-59
2021/05/29 07:51:03;;;;;;;6.70;5.03;;;17.40;69.50;;;;;;5030393;28;20084;-60
2021/05/29 07:53:36;;;;;;;8.70;5.70;;;17.40;70.00;;;;;;5045927;28;20394;-60
2021/05/29 07:56:05;;;;;;;6.97;4.63;;;17.50;69.60;;;;;;5015529;28;20461;-60
2021/05/29 07:58:30;;;;;;;8.07;5.05;;;17.50;69.50;;;;;;5030606;28;20029;-60
2021/05/29 08:00:56;;;;;;;6.80;4.55;;;17.50;69.30;;;;;;5017914;28;20017;-60
2021/05/29 08:03:23;;;;;;;5.57;4.70;;;17.50;69.20;;;;;;5009265;28;20103;-59
2021/05/29 08:05:51;;;;;;;7.72;5.03;;;17.50;69.20;;;;;;5029481;28;20560;-60
2021/05/29 08:08:17;;;;;;;8.27;4.50;;;17.60;69.20;;;;;;5018353;28;20128;-59
2021/05/29 08:10:47;;;;;;;7.10;4.80;;;17.50;69.20;;;;;;5023573;28;20116;-60
2021/05/29 08:13:12;;;;;;;10.00;4.90;;;17.60;69.30;;;;;;5026206;28;20021;-59
2021/05/29 08:15:38;;;;;;;10.13;4.93;;;17.60;69.20;;;;;;5015050;28;20551;-60
2021/05/29 08:18:04;;;;;;;10.02;4.63;;;17.60;69.10;;;;;;5021718;28;20030;-59
2021/05/29 08:20:29;;;;;;;10.70;4.25;;;17.70;69.00;;;;;;5033865;28;20045;-59
2021/05/29 08:22:55;;;;;;;14.35;4.70;;;17.70;68.80;;;;;;5029224;28;20037;-60
2021/05/29 08:25:20;;;;;;;11.57;4.40;;;17.70;68.70;;;;;;5048757;28;20032;-59
2021/05/29 08:27:46;;;;;;;12.55;4.70;;;17.80;68.60;;;;;;5016807;28;20021;-59
2021/05/29 08:30:12;;;;;;;13.82;5.25;;;17.80;68.50;;;;;;5041775;28;20040;-59
2021/05/29 08:32:38;;;;;;;11.85;4.95;;;17.80;68.20;;;;;;5047482;28;20097;-59
2021/05/29 08:35:06;;;;;;;19.50;4.60;;;17.90;68.40;;;;;;5046361;28;20032;-60
2021/05/29 08:37:31;;;;;;;14.45;5.00;;;17.90;68.40;;;;;;5018781;28;20373;-59
2021/05/29 08:39:57;;;;;;;15.70;5.07;;;17.80;68.30;;;;;;5045562;28;20025;-60
2021/05/29 08:42:22;;;;;;;13.25;4.60;;;17.80;68.20;;;;;;5039569;28;20094;-59
2021/05/29 08:44:48;;;;;;;13.35;4.70;;;17.80;68.30;;;;;;5029318;28;20032;-59
2021/05/29 08:47:14;;;;;;;9.90;4.90;;;17.80;68.40;;;;;;5024451;28;20044;-59
2021/05/29 08:49:39;;;;;;;11.30;4.15;;;17.90;68.40;;;;;;5037972;28;20835;-59
2021/05/29 08:52:07;;;;;;;19.13;5.00;;;17.90;68.20;;;;;;5038583;28;20083;-59
2021/05/29 08:54:33;;;;;;;14.02;4.65;;;17.90;68.20;;;;;;5039722;28;20056;-59
2021/05/29 08:56:58;;;;;;;13.23;4.72;;;17.90;68.40;;;;;;5011760;28;20477;-59
2021/05/29 08:59:24;;;;;;;23.58;5.57;;;17.90;68.20;;;;;;5011849;28;20715;-59
2021/05/29 09:01:52;;;;;;;11.98;4.90;;;18.00;68.30;;;;;;5043371;28;20409;-59
2021/05/29 09:04:17;;;;;;;37.20;6.82;;;18.00;68.30;;;;;;5025009;28;20068;-59
2021/05/29 09:06:45;;;;;;;15.45;5.25;;;18.00;68.20;;;;;;5050939;28;20410;-59
2021/05/29 09:09:14;;;;;;;18.10;5.70;;;18.00;68.20;;;;;;5037607;28;20405;-59
2021/05/29 09:11:46;;;;;;;14.00;5.40;;;18.00;68.00;;;;;;5026743;28;20353;-59
2021/05/29 09:14:24;;;;;;;25.05;5.65;;;17.90;68.00;;;;;;5031742;28;20143;-59
2021/05/29 09:17:06;;;;;;;11.23;5.35;;;17.90;68.30;;;;;;5047662;28;20085;-59
2021/05/29 09:19:52;;;;;;;131.38;13.55;;;18.00;68.40;;;;;;5025623;28;20038;-59
2021/05/29 09:22:22;;;;;;;41.15;7.18;;;18.20;68.50;;;;;;5019029;28;20808;-59
2021/05/29 09:25:05;;;;;;;47.80;7.05;;;18.00;68.60;;;;;;4984103;28;20032;-60
2021/05/29 09:27:53;;;;;;;25.17;5.75;;;18.00;68.70;;;;;;5030453;28;20473;-59
2021/05/29 09:30:47;;;;;;;28.80;6.03;;;18.10;68.20;;;;;;5033606;28;20381;-59
2021/05/29 09:33:21;;;;;;;36.88;6.70;;;18.20;67.90;;;;;;5010581;28;20136;-60
2021/05/29 09:35:57;;;;;;;27.60;6.93;;;18.20;67.80;;;;;;5005505;28;20461;-59
2021/05/29 09:38:23;;;;;;;30.05;6.68;;;18.20;67.90;;;;;;4996457;28;20025;-59
2021/05/29 09:40:53;;;;;;;36.13;6.00;;;18.30;67.80;;;;;;5026330;28;20452;-59
2021/05/29 09:43:18;;;;;;;18.60;5.38;;;18.30;67.60;;;;;;5021077;28;20018;-59
2021/05/29 09:45:44;;;;;;;28.95;6.35;;;18.40;67.50;;;;;;5027307;28;20037;-60
2021/05/29 09:48:20;;;;;;;16.13;5.22;;;18.40;67.50;;;;;;5031207;28;20033;-60
2021/05/29 09:51:08;;;;;;;13.63;5.40;;;18.40;67.10;;;;;;5008175;28;20423;-59
2021/05/29 09:53:45;;;;;;;20.73;4.68;;;18.40;66.40;;;;;;5022650;28;20117;-60
2021/05/29 09:56:23;;;;;;;17.27;5.53;;;18.30;66.30;;;;;;5009579;28;20030;-60
2021/05/29 09:59:00;;;;;;;36.85;6.65;;;18.30;66.40;;;;;;5004750;28;20040;-60
2021/05/29 10:01:48;;;;;;;34.70;6.60;;;18.40;67.10;;;;;;4995496;28;20022;-62
2021/05/29 10:04:39;;;;;;;47.58;7.78;;;18.40;67.40;;;;;;5032014;28;20401;-60
2021/05/29 10:07:10;;;;;;;38.60;6.22;;;18.50;67.20;;;;;;5027033;28;20104;-59
2021/05/29 10:09:35;;;;;;;29.27;6.03;;;18.50;66.90;;;;;;5008760;28;20031;-60
2021/05/29 10:12:02;;;;;;;52.75;6.85;;;18.60;66.40;;;;;;5030861;28;20037;-59
2021/05/29 10:14:30;;;;;;;24.20;5.53;;;18.60;65.80;;;;;;5019715;28;20029;-59
2021/05/29 10:16:55;;;;;;;80.32;11.00;;;18.70;65.50;;;;;;5029661;28;20034;-59
2021/05/29 10:19:21;;;;;;;24.70;5.68;;;18.70;65.20;;;;;;5021051;28;20104;-60
2021/05/29 10:21:51;;;;;;;32.70;5.55;;;18.70;65.00;;;;;;5041180;28;20068;-60
2021/05/29 10:24:16;;;;;;;30.52;4.88;;;18.80;64.70;;;;;;5028783;28;20138;-60
2021/05/29 10:26:42;;;;;;;19.48;3.80;;;18.80;64.60;;;;;;5045939;28;20457;-59
2021/05/29 10:29:08;;;;;;;17.10;3.40;;;18.80;64.20;;;;;;5022676;28;20029;-59
2021/05/29 10:31:36;;;;;;;7.57;3.30;;;18.80;64.30;;;;;;5040461;28;20041;-59
2021/05/29 10:34:01;;;;;;;20.33;3.95;;;18.80;64.20;;;;;;5033480;28;20485;-59
2021/05/29 10:36:40;;;;;;;75.70;9.35;;;18.80;63.90;;;;;;5050611;28;20098;-59
2021/05/29 10:39:11;;;;;;;35.72;5.78;;;18.90;63.90;;;;;;5053931;28;20113;-59
2021/05/29 10:41:52;;;;;;;23.92;4.30;;;18.90;63.90;;;;;;5032775;28;20486;-59
2021/05/29 10:44:34;;;;;;;21.77;3.95;;;19.00;63.70;;;;;;5031799;28;20029;-59
2021/05/29 10:47:03;;;;;;;37.58;5.32;;;19.00;63.20;;;;;;5035181;28;20032;-59
2021/05/29 10:49:47;;;;;;;23.33;4.45;;;19.10;63.30;;;;;;5057158;28;20487;-60
2021/05/29 10:52:32;;;;;;;23.92;4.28;;;19.10;62.60;;;;;;5055009;28;20025;-59
2021/05/29 10:55:20;;;;;;;35.85;4.40;;;19.10;62.30;;;;;;5036954;28;20025;-59
2021/05/29 10:57:51;;;;;;;48.08;5.95;;;19.20;62.40;;;;;;5047074;28;20041;-59
2021/05/29 11:00:35;;;;;;;41.75;5.97;;;19.30;62.30;;;;;;5042889;28;20033;-59
2021/05/29 11:03:16;;;;;;;47.40;6.85;;;19.30;62.20;;;;;;5030807;28;20025;-59
2021/05/29 11:05:45;;;;;;;25.77;3.83;;;19.40;62.20;;;;;;5044995;28;20115;-59
2021/05/29 11:08:49;;;;;;;57.17;7.07;;;19.50;61.80;;;;;;5043522;28;20072;-60
2021/05/29 11:14:29;;;;;;;30.48;4.15;;;19.60;61.10;;;;;;5053916;28;20226;-60
2021/05/29 11:16:56;;;;;;;30.90;4.68;;;19.70;60.70;;;;;;5019725;28;20388;-59
2021/05/29 11:19:25;;;;;;;31.13;4.80;;;19.80;60.90;;;;;;5055986;28;20522;-59
2021/05/29 11:22:13;;;;;;;43.67;5.47;;;19.80;60.60;;;;;;5037453;28;20037;-59
2021/05/29 11:24:54;;;;;;;43.25;6.10;;;19.90;60.20;;;;;;5047672;28;20545;-59
2021/05/29 11:27:31;;;;;;;12.40;2.90;;;19.90;60.00;;;;;;5056755;28;20119;-60
2021/05/29 11:30:01;;;;;;;15.32;3.33;;;20.00;59.00;;;;;;5058936;28;20051;-59
2021/05/29 11:32:40;;;;;;;16.48;3.35;;;20.00;58.60;;;;;;5055392;28;20180;-59
2021/05/29 11:35:06;;;;;;;20.33;3.63;;;20.00;59.10;;;;;;5035687;28;20045;-59
2021/05/29 11:37:32;;;;;;;29.85;3.83;;;20.00;59.00;;;;;;5037463;28;20029;-60
2021/05/29 11:39:57;;;;;;;25.33;3.97;;;20.00;58.80;;;;;;5047486;28;20757;-59
2021/05/29 11:42:23;;;;;;;19.80;3.60;;;20.10;59.10;;;;;;5056591;28;20026;-59
2021/05/29 11:44:48;;;;;;;20.92;3.20;;;20.10;58.70;;;;;;5058594;28;20032;-59
2021/05/29 11:47:15;;;;;;;22.33;3.20;;;20.20;58.40;;;;;;5021116;28;20053;-59
2021/05/29 11:49:40;;;;;;;42.75;5.07;;;20.20;57.80;;;;;;5046086;28;20028;-59
2021/05/29 11:52:06;;;;;;;82.55;7.63;;;20.30;57.40;;;;;;5055302;28;20021;-59
2021/05/29 11:54:36;;;;;;;33.53;4.82;;;20.30;57.30;;;;;;5039742;28;20543;-59
2021/05/29 11:57:02;;;;;;;26.88;4.55;;;20.40;57.20;;;;;;5055016;28;20211;-59
2021/05/29 11:59:27;;;;;;;29.67;3.92;;;20.50;57.10;;;;;;5019159;28;20033;-60
2021/05/29 12:01:54;;;;;;;22.15;2.65;;;20.50;57.00;;;;;;5030117;28;20040;-59
2021/05/29 12:04:22;;;;;;;16.40;3.55;;;20.50;57.30;;;;;;5062824;28;20028;-59
2021/05/29 12:06:56;;;;;;;24.17;3.50;;;20.50;57.40;;;;;;5054418;28;20105;-59
2021/05/29 12:09:42;;;;;;;22.58;4.25;;;20.50;57.90;;;;;;5059625;28;20067;-60
2021/05/29 12:12:09;;;;;;;20.83;3.72;;;20.50;58.20;;;;;;5052432;28;20046;-59
2021/05/29 12:14:38;;;;;;;35.30;5.47;;;20.50;58.30;;;;;;5035546;28;20040;-60
2021/05/29 12:17:15;;;;;;;35.13;4.93;;;20.60;58.30;;;;;;5036794;28;20337;-59
2021/05/29 12:19:45;;;;;;;52.92;6.72;;;20.50;58.20;;;;;;5049221;28;20029;-60
2021/05/29 12:22:12;;;;;;;37.92;5.68;;;20.50;58.00;;;;;;5037805;28;20056;-59
2021/05/29 12:24:45;;;;;;;35.67;4.38;;;20.60;57.70;;;;;;5007349;28;20037;-59
2021/05/29 12:27:15;;;;;;;36.45;4.10;;;20.70;57.60;;;;;;5049551;28;20078;-59
2021/05/29 12:29:40;;;;;;;24.55;3.80;;;20.70;57.50;;;;;;5031804;28;20416;-59
2021/05/29 12:32:06;;;;;;;26.27;3.92;;;20.80;57.30;;;;;;5019202;28;20025;-59
2021/05/29 12:34:32;;;;;;;21.95;2.88;;;20.80;57.10;;;;;;5045684;28;20033;-59
2021/05/29 12:37:08;;;;;;;25.35;3.40;;;20.80;56.80;;;;;;5031575;28;20041;-63
2021/05/29 12:39:55;;;;;;;25.42;3.72;;;20.90;56.90;;;;;;5036235;28;20095;-59
2021/05/29 12:42:34;;;;;;;33.63;3.60;;;21.00;57.00;;;;;;5043689;28;20395;-60
2021/05/29 12:45:04;;;;;;;24.25;3.67;;;21.00;56.60;;;;;;5028008;28;20034;-60
2021/05/29 12:47:31;;;;;;;30.00;3.50;;;21.10;56.20;;;;;;5051642;28;20025;-59
2021/05/29 12:49:58;;;;;;;19.02;3.38;;;21.10;55.90;;;;;;5030475;28;20095;-60
2021/05/29 12:52:32;;;;;;;16.48;3.30;;;21.20;56.00;;;;;;5052674;28;20049;-60
2021/05/29 12:54:58;;;;;;;23.05;3.42;;;21.30;55.70;;;;;;5051281;28;20021;-59